Flight Track Log - Related Links

Times and Time Zones

All times are in EDT time to prevent confusion due to time zone crossing. See the EJA929 flight status page for this flight to view local times or setup timezone preferences in your user account.

Time Position Orientation Groundspeed Altitude Reporting Facility
EDT Latitude Longitude Course Direction KTS MPH feet Rate Location/Type
Thu 07:56:42 AM 33.5661 -86.7511 52° Northeast 174 200 1,400  Level Atlanta Center
Thu 07:57:51 AM 33.6092 -86.6853 52° Northeast 210 242 5,000 3,023 Climbing Atlanta Center
Thu 07:58:51 AM 33.6664 -86.6469 29° Northeast 279 321 7,900 2,500 Climbing Atlanta Center
Thu 07:59:51 AM 33.6917 -86.7328 290° West 203 234 10,000 2,000 Climbing Atlanta Center
Thu 08:00:51 AM 33.6789 -86.8447 262° West 238 274 11,900 1,950 Climbing Atlanta Center
Thu 08:01:51 AM 33.6656 -86.9639 262° West 301 346 13,900 1,900 Climbing Atlanta Center
Thu 08:02:51 AM 33.6522 -87.0858 263° West 336 387 15,700 1,750 Climbing Atlanta Center
Thu 08:03:51 AM 33.6367 -87.2100 261° West 360 414 17,400 1,538 Climbing Atlanta Center
Thu 08:06:06 AM 33.6033 -87.4967 262° West 399 459 20,700 1,508 Climbing Memphis Center
Thu 08:07:06 AM 33.5897 -87.6292 263° West 399 459 22,300 1,550 Climbing Memphis Center
Thu 08:08:06 AM 33.5717 -87.7619 261° West 404 465 23,800 1,450 Climbing Memphis Center
Thu 08:09:06 AM 33.5578 -87.8994 263° West 409 471 25,200 1,500 Climbing Memphis Center
Thu 08:10:06 AM 33.5728 -88.0336 278° West 403 464 26,800 1,400 Climbing Memphis Center
Thu 08:11:06 AM 33.6025 -88.1700 285° West 409 471 28,000 600 Climbing Memphis Center
Thu 08:12:06 AM 33.6339 -88.3039 286° West 414 476 28,000  Level Memphis Center
Thu 08:13:06 AM 33.6656 -88.4503 285° West 426 490 28,000  Level Memphis Center
Thu 08:14:06 AM 33.6967 -88.5919 285° West 439 505 28,000  Level Memphis Center
Thu 08:15:06 AM 33.7300 -88.7386 285° West 444 511 28,000  Level Memphis Center
Thu 08:16:06 AM 33.7567 -88.8681 284° West 449 517 28,000  Level Memphis Center
Thu 08:17:06 AM 33.7897 -89.0125 285° West 449 517 28,000  Level Memphis Center
Thu 08:18:06 AM 33.8203 -89.1494 285° West 436 502 28,000  Level Memphis Center
Thu 08:19:06 AM 33.8489 -89.2967 283° West 436 502 28,000  Level Memphis Center
Thu 08:20:06 AM 33.8836 -89.4564 285° West 441 507 28,000  Level Memphis Center
Thu 08:21:06 AM 33.9117 -89.6039 283° West 451 519 28,000 -50 Level Memphis Center
Thu 08:22:06 AM 33.9436 -89.7486 285° West 451 519 27,900 -650 Descending Memphis Center
Thu 08:23:06 AM 33.9736 -89.8964 284° West 451 519 26,700 -1,350 Descending Memphis Center
Thu 08:24:06 AM 34.0053 -90.0439 285° West 451 519 25,200 -1,350 Descending Memphis Center
Thu 08:25:06 AM 34.0347 -90.1917 284° West 451 519 24,000 -600 Descending Memphis Center
Thu 08:26:06 AM 34.0642 -90.3372 284° West 451 519 24,000  Level Memphis Center
Thu 08:27:06 AM 34.0892 -90.4625 284° West 441 507 24,000  Level Memphis Center
Thu 08:28:06 AM 34.1183 -90.6031 284° West 436 502 24,000  Level Memphis Center
Thu 08:29:06 AM 34.1472 -90.7436 284° West 429 494 24,000  Level Memphis Center
Thu 08:30:06 AM 34.1736 -90.8794 283° West 429 494 24,000 -450 Level Memphis Center
Thu 08:31:06 AM 34.2022 -91.0228 284° West 434 499 23,100 -850 Descending Memphis Center
Thu 08:32:06 AM 34.2286 -91.1636 283° West 432 497 22,300 -1,511 Descending Memphis Center
Thu 08:33:17 AM 34.2647 -91.3525 283° West 468 539 19,800 -2,000 Descending Memphis Center
Thu 08:34:06 AM 34.2889 -91.4683 284° West 450 518 18,300 -2,147 Descending Memphis Center
Thu 08:35:06 AM 34.3167 -91.6044 284° West 431 496 15,900 -2,700 Descending Memphis Center
Thu 08:36:06 AM 34.3575 -91.7158 294° West 389 448 12,900 -2,300 Descending Memphis Center
Thu 08:37:06 AM 34.3875 -91.8219 289° West 360 414 11,300 -1,350 Descending Memphis Center
Thu 08:38:06 AM 34.4092 -91.9156 286° West 320 368 10,200 -1,150 Descending Memphis Center
Thu 08:39:06 AM 34.4436 -91.9992 297° West 290 334 9,000 -1,500 Descending Memphis Center
Thu 08:40:06 AM 34.4886 -92.0731 306° West 275 316 7,200 -1,950 Descending Memphis Center
Thu 08:41:06 AM 34.5336 -92.1394 309° West 270 311 5,100 -1,950 Descending Memphis Center
Thu 08:42:06 AM 34.5742 -92.2111 305° West 265 305 3,300 -1,550 Descending Memphis Center
Thu 08:43:06 AM 34.6239 -92.2475 329° Northwest 219 252 2,000 -1,029 Descending Memphis Center
Thu 08:43:51 AM 34.6553 -92.2431 North 163 188 1,500 -610 Descending Memphis Center
Thu 08:45:04 AM 34.6989 -92.2442 359° North 122 140 800 -356 Descending Memphis Center
Thu 08:46:06 AM 34.7447 -92.2528 351° North 148 170 700 -97 Descending Memphis Center
Thu 08:50:00 AM 34.7294 -92.2248 121° Southeast  Level Estimated
Thu 08:57:00 AM 34.7294 -92.2248 121° Southeast  Level Estimated
Thu 08:58:00 AM 34.7294 -92.2248 121° Southeast  Level Estimated
Thu 08:59:00 AM 34.7294 -92.2248 121° Southeast  Level Estimated
Thu 09:00:00 AM 34.7294 -92.2248 121° Southeast  Level Estimated

Login

Don't have an account? Register now (free) for customized features, flight alerts, and more!